sensor_id;sensor_type;location;lat;lon;timestamp;temperature;humidity
13344;DHT22;6741;48.964;9.406;2023-04-25T00:01:07;7.40;99.90
13344;DHT22;6741;48.964;9.406;2023-04-25T00:03:35;7.40;99.90
13344;DHT22;6741;48.964;9.406;2023-04-25T00:06:03;7.40;99.90
13344;DHT22;6741;48.964;9.406;2023-04-25T00:08:30;7.30;99.90
13344;DHT22;6741;48.964;9.406;2023-04-25T00:10:57;7.30;99.90
13344;DHT22;6741;48.964;9.406;2023-04-25T00:13:25;7.20;99.90
13344;DHT22;6741;48.964;9.406;2023-04-25T00:15:52;7.20;99.90
13344;DHT22;6741;48.964;9.406;2023-04-25T00:18:19;7.20;99.90
13344;DHT22;6741;48.964;9.406;2023-04-25T00:20:47;7.20;99.90
13344;DHT22;6741;48.964;9.406;2023-04-25T00:23:15;7.30;99.90
13344;DHT22;6741;48.964;9.406;2023-04-25T00:25:43;7.20;99.90
13344;DHT22;6741;48.964;9.406;2023-04-25T00:28:11;7.20;99.90
13344;DHT22;6741;48.964;9.406;2023-04-25T00:30:38;7.20;99.90
13344;DHT22;6741;48.964;9.406;2023-04-25T00:33:05;7.20;99.90
13344;DHT22;6741;48.964;9.406;2023-04-25T00:35:32;7.20;99.90
13344;DHT22;6741;48.964;9.406;2023-04-25T00:38:00;7.20;99.90
13344;DHT22;6741;48.964;9.406;2023-04-25T00:40:27;7.20;99.90
13344;DHT22;6741;48.964;9.406;2023-04-25T00:42:54;7.20;99.90
13344;DHT22;6741;48.964;9.406;2023-04-25T00:45:21;7.10;99.90
13344;DHT22;6741;48.964;9.406;2023-04-25T00:47:50;7.10;99.90
13344;DHT22;6741;48.964;9.406;2023-04-25T00:50:17;7.20;99.90
13344;DHT22;6741;48.964;9.406;2023-04-25T00:52:44;7.20;99.90
13344;DHT22;6741;48.964;9.406;2023-04-25T00:55:13;7.20;99.90
13344;DHT22;6741;48.964;9.406;2023-04-25T00:57:42;7.10;99.90
13344;DHT22;6741;48.964;9.406;2023-04-25T01:00:09;7.20;99.90
13344;DHT22;6741;48.964;9.406;2023-04-25T01:02:37;7.20;99.90
13344;DHT22;6741;48.964;9.406;2023-04-25T01:05:05;7.20;99.90
13344;DHT22;6741;48.964;9.406;2023-04-25T01:07:31;7.20;99.90
13344;DHT22;6741;48.964;9.406;2023-04-25T01:09:58;7.10;99.90
13344;DHT22;6741;48.964;9.406;2023-04-25T01:12:27;7.20;99.90
13344;DHT22;6741;48.964;9.406;2023-04-25T01:14:54;7.10;99.90
13344;DHT22;6741;48.964;9.406;2023-04-25T01:17:21;7.10;99.90
13344;DHT22;6741;48.964;9.406;2023-04-25T01:19:49;7.00;99.90
13344;DHT22;6741;48.964;9.406;2023-04-25T01:22:18;7.00;99.90
13344;DHT22;6741;48.964;9.406;2023-04-25T01:24:46;7.00;99.90
13344;DHT22;6741;48.964;9.406;2023-04-25T01:27:13;7.00;99.90
13344;DHT22;6741;48.964;9.406;2023-04-25T01:29:40;7.00;99.90
13344;DHT22;6741;48.964;9.406;2023-04-25T01:32:08;7.00;99.90
13344;DHT22;6741;48.964;9.406;2023-04-25T01:34:36;6.90;99.90
13344;DHT22;6741;48.964;9.406;2023-04-25T01:37:03;6.90;99.90
13344;DHT22;6741;48.964;9.406;2023-04-25T01:39:31;6.80;99.90
13344;DHT22;6741;48.964;9.406;2023-04-25T01:41:59;6.80;99.90
13344;DHT22;6741;48.964;9.406;2023-04-25T01:44:27;6.80;99.90
13344;DHT22;6741;48.964;9.406;2023-04-25T01:46:54;6.80;99.90
13344;DHT22;6741;48.964;9.406;2023-04-25T01:49:21;6.70;99.90
13344;DHT22;6741;48.964;9.406;2023-04-25T01:51:49;6.70;99.90
13344;DHT22;6741;48.964;9.406;2023-04-25T01:54:17;6.70;99.90
13344;DHT22;6741;48.964;9.406;2023-04-25T01:56:50;6.70;99.90
13344;DHT22;6741;48.964;9.406;2023-04-25T01:59:18;6.60;99.90
13344;DHT22;6741;48.964;9.406;2023-04-25T02:01:45;6.60;99.90
13344;DHT22;6741;48.964;9.406;2023-04-25T02:04:12;6.60;99.90
13344;DHT22;6741;48.964;9.406;2023-04-25T02:06:39;6.50;99.90
13344;DHT22;6741;48.964;9.406;2023-04-25T02:09:06;6.50;99.90
13344;DHT22;6741;48.964;9.406;2023-04-25T02:11:33;6.50;99.90
13344;DHT22;6741;48.964;9.406;2023-04-25T02:14:01;6.50;99.90
13344;DHT22;6741;48.964;9.406;2023-04-25T02:16:28;6.50;99.90
13344;DHT22;6741;48.964;9.406;2023-04-25T02:18:56;6.50;99.90
13344;DHT22;6741;48.964;9.406;2023-04-25T02:21:23;6.40;99.90
13344;DHT22;6741;48.964;9.406;2023-04-25T02:23:49;6.40;99.90
13344;DHT22;6741;48.964;9.406;2023-04-25T02:26:17;6.40;99.90
13344;DHT22;6741;48.964;9.406;2023-04-25T02:28:44;6.40;99.90
13344;DHT22;6741;48.964;9.406;2023-04-25T02:31:12;6.40;99.90
13344;DHT22;6741;48.964;9.406;2023-04-25T02:33:39;6.50;99.90
13344;DHT22;6741;48.964;9.406;2023-04-25T02:36:07;6.40;99.90
13344;DHT22;6741;48.964;9.406;2023-04-25T02:38:33;6.50;99.90
13344;DHT22;6741;48.964;9.406;2023-04-25T02:41:01;6.50;99.90
13344;DHT22;6741;48.964;9.406;2023-04-25T02:43:27;6.50;99.90
13344;DHT22;6741;48.964;9.406;2023-04-25T02:45:55;6.60;99.90
13344;DHT22;6741;48.964;9.406;2023-04-25T02:48:23;6.60;99.90
13344;DHT22;6741;48.964;9.406;2023-04-25T02:50:50;6.70;99.90
13344;DHT22;6741;48.964;9.406;2023-04-25T02:53:17;6.80;99.90
13344;DHT22;6741;48.964;9.406;2023-04-25T02:55:44;6.80;99.90
13344;DHT22;6741;48.964;9.406;2023-04-25T02:58:11;6.70;99.90
13344;DHT22;6741;48.964;9.406;2023-04-25T03:00:38;6.70;99.90
13344;DHT22;6741;48.964;9.406;2023-04-25T03:03:05;6.80;99.90
13344;DHT22;6741;48.964;9.406;2023-04-25T03:05:33;6.80;99.90
13344;DHT22;6741;48.964;9.406;2023-04-25T03:08:00;6.90;99.90
13344;DHT22;6741;48.964;9.406;2023-04-25T03:10:27;6.80;99.90
13344;DHT22;6741;48.964;9.406;2023-04-25T03:12:53;6.80;99.90
13344;DHT22;6741;48.964;9.406;2023-04-25T03:15:20;6.90;99.90
13344;DHT22;6741;48.964;9.406;2023-04-25T03:17:47;6.90;99.90
13344;DHT22;6741;48.964;9.406;2023-04-25T03:20:14;7.00;99.90
13344;DHT22;6741;48.964;9.406;2023-04-25T03:22:42;6.90;99.90
13344;DHT22;6741;48.964;9.406;2023-04-25T03:25:10;6.90;99.90
13344;DHT22;6741;48.964;9.406;2023-04-25T03:27:36;6.80;99.90
13344;DHT22;6741;48.964;9.406;2023-04-25T03:30:05;6.90;99.90
13344;DHT22;6741;48.964;9.406;2023-04-25T03:32:32;6.90;99.90
13344;DHT22;6741;48.964;9.406;2023-04-25T03:34:59;6.90;99.90
13344;DHT22;6741;48.964;9.406;2023-04-25T03:37:25;6.90;99.90
13344;DHT22;6741;48.964;9.406;2023-04-25T03:39:54;6.90;99.90
13344;DHT22;6741;48.964;9.406;2023-04-25T03:42:21;6.90;99.90
13344;DHT22;6741;48.964;9.406;2023-04-25T03:44:49;6.90;99.90
13344;DHT22;6741;48.964;9.406;2023-04-25T03:47:15;6.90;99.90
13344;DHT22;6741;48.964;9.406;2023-04-25T03:49:42;6.80;99.90
13344;DHT22;6741;48.964;9.406;2023-04-25T03:52:10;6.80;99.90
13344;DHT22;6741;48.964;9.406;2023-04-25T03:54:37;6.80;99.90
13344;DHT22;6741;48.964;9.406;2023-04-25T03:57:05;6.80;99.90
13344;DHT22;6741;48.964;9.406;2023-04-25T03:59:32;6.90;99.90
13344;DHT22;6741;48.964;9.406;2023-04-25T04:01:59;6.90;99.90
13344;DHT22;6741;48.964;9.406;2023-04-25T04:04:26;6.90;99.90
13344;DHT22;6741;48.964;9.406;2023-04-25T04:06:53;6.80;99.90
13344;DHT22;6741;48.964;9.406;2023-04-25T04:09:19;6.90;99.90
13344;DHT22;6741;48.964;9.406;2023-04-25T04:11:46;6.80;99.90
13344;DHT22;6741;48.964;9.406;2023-04-25T04:14:15;6.90;99.90
13344;DHT22;6741;48.964;9.406;2023-04-25T04:16:42;6.90;99.90
13344;DHT22;6741;48.964;9.406;2023-04-25T04:19:09;6.80;99.90
13344;DHT22;6741;48.964;9.406;2023-04-25T04:21:36;6.80;99.90
13344;DHT22;6741;48.964;9.406;2023-04-25T04:24:03;6.90;99.90
13344;DHT22;6741;48.964;9.406;2023-04-25T04:26:32;6.80;99.90
13344;DHT22;6741;48.964;9.406;2023-04-25T04:29:01;6.90;99.90
13344;DHT22;6741;48.964;9.406;2023-04-25T04:31:32;6.80;99.90
13344;DHT22;6741;48.964;9.406;2023-04-25T04:33:59;6.80;99.90
13344;DHT22;6741;48.964;9.406;2023-04-25T04:36:27;6.80;99.90
13344;DHT22;6741;48.964;9.406;2023-04-25T04:38:54;6.90;99.90
13344;DHT22;6741;48.964;9.406;2023-04-25T04:41:22;6.80;99.90
13344;DHT22;6741;48.964;9.406;2023-04-25T04:43:50;7.00;99.90
13344;DHT22;6741;48.964;9.406;2023-04-25T04:46:18;6.90;99.90
13344;DHT22;6741;48.964;9.406;2023-04-25T04:48:47;6.90;99.90
13344;DHT22;6741;48.964;9.406;2023-04-25T04:51:14;6.90;99.90
13344;DHT22;6741;48.964;9.406;2023-04-25T04:53:43;7.00;99.90
13344;DHT22;6741;48.964;9.406;2023-04-25T04:56:10;7.00;99.90
13344;DHT22;6741;48.964;9.406;2023-04-25T04:58:37;6.90;99.90
13344;DHT22;6741;48.964;9.406;2023-04-25T05:01:04;7.10;99.90
13344;DHT22;6741;48.964;9.406;2023-04-25T05:03:32;7.10;99.90
13344;DHT22;6741;48.964;9.406;2023-04-25T05:06:01;7.10;99.90
13344;DHT22;6741;48.964;9.406;2023-04-25T05:08:28;7.10;99.90
13344;DHT22;6741;48.964;9.406;2023-04-25T05:10:55;7.20;99.90
13344;DHT22;6741;48.964;9.406;2023-04-25T05:13:22;7.20;99.90
13344;DHT22;6741;48.964;9.406;2023-04-25T05:15:49;7.20;99.90
13344;DHT22;6741;48.964;9.406;2023-04-25T05:18:16;7.30;99.90
13344;DHT22;6741;48.964;9.406;2023-04-25T05:20:43;7.30;99.90
13344;DHT22;6741;48.964;9.406;2023-04-25T05:23:12;7.40;99.90
13344;DHT22;6741;48.964;9.406;2023-04-25T05:25:39;7.30;99.90
13344;DHT22;6741;48.964;9.406;2023-04-25T05:28:05;7.20;99.90
13344;DHT22;6741;48.964;9.406;2023-04-25T05:30:33;7.30;99.90
13344;DHT22;6741;48.964;9.406;2023-04-25T05:33:00;7.20;99.90
13344;DHT22;6741;48.964;9.406;2023-04-25T05:35:27;7.30;99.90
13344;DHT22;6741;48.964;9.406;2023-04-25T05:37:54;7.30;99.90
13344;DHT22;6741;48.964;9.406;2023-04-25T05:40:23;7.30;99.90
13344;DHT22;6741;48.964;9.406;2023-04-25T05:42:50;7.40;99.90
13344;DHT22;6741;48.964;9.406;2023-04-25T05:45:17;7.50;99.90
13344;DHT22;6741;48.964;9.406;2023-04-25T05:47:44;7.60;99.90
13344;DHT22;6741;48.964;9.406;2023-04-25T05:50:11;7.60;99.90
13344;DHT22;6741;48.964;9.406;2023-04-25T05:52:37;7.50;99.90
13344;DHT22;6741;48.964;9.406;2023-04-25T05:55:05;7.40;99.90
13344;DHT22;6741;48.964;9.406;2023-04-25T05:57:34;7.40;99.90
13344;DHT22;6741;48.964;9.406;2023-04-25T06:00:01;7.40;99.90
13344;DHT22;6741;48.964;9.406;2023-04-25T06:02:29;7.40;99.90
13344;DHT22;6741;48.964;9.406;2023-04-25T06:04:56;7.30;99.90
13344;DHT22;6741;48.964;9.406;2023-04-25T06:07:23;7.40;99.90
13344;DHT22;6741;48.964;9.406;2023-04-25T06:09:50;7.30;99.90
13344;DHT22;6741;48.964;9.406;2023-04-25T06:12:17;7.40;99.90
13344;DHT22;6741;48.964;9.406;2023-04-25T06:14:45;7.30;99.90
13344;DHT22;6741;48.964;9.406;2023-04-25T06:17:13;7.30;99.90
13344;DHT22;6741;48.964;9.406;2023-04-25T06:19:40;7.30;99.90
13344;DHT22;6741;48.964;9.406;2023-04-25T06:22:07;7.40;99.90
13344;DHT22;6741;48.964;9.406;2023-04-25T06:24:34;7.60;99.90
13344;DHT22;6741;48.964;9.406;2023-04-25T06:27:01;7.60;99.90
13344;DHT22;6741;48.964;9.406;2023-04-25T06:29:28;7.70;99.90
13344;DHT22;6741;48.964;9.406;2023-04-25T06:31:56;7.80;99.90
13344;DHT22;6741;48.964;9.406;2023-04-25T06:34:23;7.90;99.90
13344;DHT22;6741;48.964;9.406;2023-04-25T06:36:50;8.10;99.90
13344;DHT22;6741;48.964;9.406;2023-04-25T06:39:17;8.20;99.90
13344;DHT22;6741;48.964;9.406;2023-04-25T06:41:45;8.40;99.90
13344;DHT22;6741;48.964;9.406;2023-04-25T06:44:12;8.50;99.90
13344;DHT22;6741;48.964;9.406;2023-04-25T06:46:39;8.50;99.90
13344;DHT22;6741;48.964;9.406;2023-04-25T06:49:07;8.60;99.90
13344;DHT22;6741;48.964;9.406;2023-04-25T06:51:34;8.60;99.90
13344;DHT22;6741;48.964;9.406;2023-04-25T06:54:01;8.60;99.90
13344;DHT22;6741;48.964;9.406;2023-04-25T06:56:29;8.50;99.90
13344;DHT22;6741;48.964;9.406;2023-04-25T06:58:56;8.40;99.90
13344;DHT22;6741;48.964;9.406;2023-04-25T07:01:23;8.40;99.90
13344;DHT22;6741;48.964;9.406;2023-04-25T07:03:50;8.40;99.90
13344;DHT22;6741;48.964;9.406;2023-04-25T07:06:19;8.30;99.90
13344;DHT22;6741;48.964;9.406;2023-04-25T07:08:45;8.30;99.90
13344;DHT22;6741;48.964;9.406;2023-04-25T07:11:12;8.30;99.90
13344;DHT22;6741;48.964;9.406;2023-04-25T07:13:39;8.40;99.90
13344;DHT22;6741;48.964;9.406;2023-04-25T07:16:06;8.50;99.90
13344;DHT22;6741;48.964;9.406;2023-04-25T07:18:33;8.90;99.90
13344;DHT22;6741;48.964;9.406;2023-04-25T07:21:00;9.20;99.90
13344;DHT22;6741;48.964;9.406;2023-04-25T07:23:28;9.30;99.90
13344;DHT22;6741;48.964;9.406;2023-04-25T07:25:55;9.30;99.90
13344;DHT22;6741;48.964;9.406;2023-04-25T07:28:22;9.20;99.90
13344;DHT22;6741;48.964;9.406;2023-04-25T07:30:49;9.20;99.90
13344;DHT22;6741;48.964;9.406;2023-04-25T07:33:16;9.30;99.90
13344;DHT22;6741;48.964;9.406;2023-04-25T07:35:45;9.30;99.90
13344;DHT22;6741;48.964;9.406;2023-04-25T07:38:12;9.20;99.90
13344;DHT22;6741;48.964;9.406;2023-04-25T07:40:40;9.20;99.90
13344;DHT22;6741;48.964;9.406;2023-04-25T07:43:07;9.10;99.90
13344;DHT22;6741;48.964;9.406;2023-04-25T07:45:35;9.10;99.90
13344;DHT22;6741;48.964;9.406;2023-04-25T07:48:02;9.10;99.90
13344;DHT22;6741;48.964;9.406;2023-04-25T07:50:29;8.90;99.90
13344;DHT22;6741;48.964;9.406;2023-04-25T07:52:56;8.80;99.90
13344;DHT22;6741;48.964;9.406;2023-04-25T07:55:23;8.60;99.90
13344;DHT22;6741;48.964;9.406;2023-04-25T07:57:51;8.60;99.90
13344;DHT22;6741;48.964;9.406;2023-04-25T08:00:18;8.30;99.90
13344;DHT22;6741;48.964;9.406;2023-04-25T08:02:45;8.10;99.90
13344;DHT22;6741;48.964;9.406;2023-04-25T08:05:12;8.00;99.90
13344;DHT22;6741;48.964;9.406;2023-04-25T08:07:40;8.20;99.90
13344;DHT22;6741;48.964;9.406;2023-04-25T08:10:08;8.30;99.90
13344;DHT22;6741;48.964;9.406;2023-04-25T08:12:35;8.50;99.90
13344;DHT22;6741;48.964;9.406;2023-04-25T08:15:05;8.70;99.90
13344;DHT22;6741;48.964;9.406;2023-04-25T08:17:32;8.90;99.90
13344;DHT22;6741;48.964;9.406;2023-04-25T08:19:59;9.00;99.90
13344;DHT22;6741;48.964;9.406;2023-04-25T08:22:26;9.10;99.90
13344;DHT22;6741;48.964;9.406;2023-04-25T08:24:52;9.10;99.90
13344;DHT22;6741;48.964;9.406;2023-04-25T08:27:19;9.20;99.90
13344;DHT22;6741;48.964;9.406;2023-04-25T08:29:47;9.00;99.90
13344;DHT22;6741;48.964;9.406;2023-04-25T08:32:15;9.10;99.90
13344;DHT22;6741;48.964;9.406;2023-04-25T08:34:42;9.10;99.90
13344;DHT22;6741;48.964;9.406;2023-04-25T08:37:09;9.20;99.90
13344;DHT22;6741;48.964;9.406;2023-04-25T08:39:36;9.30;99.90
13344;DHT22;6741;48.964;9.406;2023-04-25T08:42:06;9.30;99.90
13344;DHT22;6741;48.964;9.406;2023-04-25T08:44:34;9.50;99.90
13344;DHT22;6741;48.964;9.406;2023-04-25T08:47:03;9.40;99.90
13344;DHT22;6741;48.964;9.406;2023-04-25T08:49:32;9.50;99.90
13344;DHT22;6741;48.964;9.406;2023-04-25T08:52:00;9.60;99.90
13344;DHT22;6741;48.964;9.406;2023-04-25T08:54:28;9.60;99.90
13344;DHT22;6741;48.964;9.406;2023-04-25T08:56:56;9.60;99.90
13344;DHT22;6741;48.964;9.406;2023-04-25T08:59:24;9.60;99.90
13344;DHT22;6741;48.964;9.406;2023-04-25T09:01:51;9.70;99.90
13344;DHT22;6741;48.964;9.406;2023-04-25T09:04:18;9.60;99.90
13344;DHT22;6741;48.964;9.406;2023-04-25T09:06:47;9.60;99.90
13344;DHT22;6741;48.964;9.406;2023-04-25T09:09:14;9.70;99.90
13344;DHT22;6741;48.964;9.406;2023-04-25T09:11:41;9.70;99.90
13344;DHT22;6741;48.964;9.406;2023-04-25T09:14:15;9.80;99.90
13344;DHT22;6741;48.964;9.406;2023-04-25T09:16:59;9.80;99.90
13344;DHT22;6741;48.964;9.406;2023-04-25T09:19:28;9.90;99.90
13344;DHT22;6741;48.964;9.406;2023-04-25T09:21:58;9.80;99.90
13344;DHT22;6741;48.964;9.406;2023-04-25T09:24:36;9.80;99.90
13344;DHT22;6741;48.964;9.406;2023-04-25T09:27:04;9.80;99.90
13344;DHT22;6741;48.964;9.406;2023-04-25T09:29:32;9.90;99.90
13344;DHT22;6741;48.964;9.406;2023-04-25T09:32:17;10.20;99.90
13344;DHT22;6741;48.964;9.406;2023-04-25T09:34:46;10.20;99.90
13344;DHT22;6741;48.964;9.406;2023-04-25T09:37:19;10.30;99.90
13344;DHT22;6741;48.964;9.406;2023-04-25T09:39:47;10.10;99.90
13344;DHT22;6741;48.964;9.406;2023-04-25T09:42:15;10.20;99.90
13344;DHT22;6741;48.964;9.406;2023-04-25T09:44:43;10.30;99.90
13344;DHT22;6741;48.964;9.406;2023-04-25T09:47:11;10.30;99.90
13344;DHT22;6741;48.964;9.406;2023-04-25T09:49:40;10.30;99.90
13344;DHT22;6741;48.964;9.406;2023-04-25T09:52:09;10.40;99.90
13344;DHT22;6741;48.964;9.406;2023-04-25T09:54:41;10.30;99.90
13344;DHT22;6741;48.964;9.406;2023-04-25T09:57:11;10.20;99.90
13344;DHT22;6741;48.964;9.406;2023-04-25T09:59:42;10.10;99.90
13344;DHT22;6741;48.964;9.406;2023-04-25T10:02:11;9.60;99.90
13344;DHT22;6741;48.964;9.406;2023-04-25T10:04:39;9.60;99.90
13344;DHT22;6741;48.964;9.406;2023-04-25T10:07:07;9.50;99.90
13344;DHT22;6741;48.964;9.406;2023-04-25T10:09:38;9.60;99.90
13344;DHT22;6741;48.964;9.406;2023-04-25T10:12:08;9.50;99.90
13344;DHT22;6741;48.964;9.406;2023-04-25T10:14:35;9.40;99.90
13344;DHT22;6741;48.964;9.406;2023-04-25T10:17:03;9.30;99.90
13344;DHT22;6741;48.964;9.406;2023-04-25T10:19:30;9.10;99.90
13344;DHT22;6741;48.964;9.406;2023-04-25T10:22:05;9.00;99.90
13344;DHT22;6741;48.964;9.406;2023-04-25T10:24:38;8.70;99.90
13344;DHT22;6741;48.964;9.406;2023-04-25T10:27:07;8.10;99.90
13344;DHT22;6741;48.964;9.406;2023-04-25T10:29:35;7.80;99.90
13344;DHT22;6741;48.964;9.406;2023-04-25T10:32:02;7.70;99.90
13344;DHT22;6741;48.964;9.406;2023-04-25T10:34:40;7.70;99.90
13344;DHT22;6741;48.964;9.406;2023-04-25T10:37:13;7.60;99.90
13344;DHT22;6741;48.964;9.406;2023-04-25T10:39:40;7.60;99.90
13344;DHT22;6741;48.964;9.406;2023-04-25T10:42:09;7.50;99.90
13344;DHT22;6741;48.964;9.406;2023-04-25T10:44:38;7.50;99.90
13344;DHT22;6741;48.964;9.406;2023-04-25T10:47:07;7.50;99.90
13344;DHT22;6741;48.964;9.406;2023-04-25T10:49:35;7.60;99.90
13344;DHT22;6741;48.964;9.406;2023-04-25T10:52:24;7.70;99.90
13344;DHT22;6741;48.964;9.406;2023-04-25T10:54:53;7.40;99.90
13344;DHT22;6741;48.964;9.406;2023-04-25T10:57:31;7.40;99.90
13344;DHT22;6741;48.964;9.406;2023-04-25T11:00:07;7.40;99.90
13344;DHT22;6741;48.964;9.406;2023-04-25T11:02:43;7.40;99.90
13344;DHT22;6741;48.964;9.406;2023-04-25T11:05:20;7.20;99.90
13344;DHT22;6741;48.964;9.406;2023-04-25T11:07:50;7.20;99.90
13344;DHT22;6741;48.964;9.406;2023-04-25T11:10:18;7.20;99.90
13344;DHT22;6741;48.964;9.406;2023-04-25T11:12:47;7.30;99.90
13344;DHT22;6741;48.964;9.406;2023-04-25T11:15:14;7.20;99.90
13344;DHT22;6741;48.964;9.406;2023-04-25T11:17:41;7.30;99.90
13344;DHT22;6741;48.964;9.406;2023-04-25T11:20:10;7.30;99.90
13344;DHT22;6741;48.964;9.406;2023-04-25T11:22:40;7.30;99.90
13344;DHT22;6741;48.964;9.406;2023-04-25T11:25:09;7.20;99.90
13344;DHT22;6741;48.964;9.406;2023-04-25T11:27:50;7.20;99.90
13344;DHT22;6741;48.964;9.406;2023-04-25T11:30:17;7.20;99.90
13344;DHT22;6741;48.964;9.406;2023-04-25T11:32:45;7.30;99.90
13344;DHT22;6741;48.964;9.406;2023-04-25T11:35:12;7.30;99.90
13344;DHT22;6741;48.964;9.406;2023-04-25T11:37:41;7.20;99.90
13344;DHT22;6741;48.964;9.406;2023-04-25T11:40:08;7.20;99.90
13344;DHT22;6741;48.964;9.406;2023-04-25T11:42:37;7.40;99.90
13344;DHT22;6741;48.964;9.406;2023-04-25T11:45:07;7.40;99.90
13344;DHT22;6741;48.964;9.406;2023-04-25T11:47:35;7.60;99.90
13344;DHT22;6741;48.964;9.406;2023-04-25T11:50:05;7.70;99.90
13344;DHT22;6741;48.964;9.406;2023-04-25T11:52:37;7.60;99.90
13344;DHT22;6741;48.964;9.406;2023-04-25T11:55:06;7.90;99.90
13344;DHT22;6741;48.964;9.406;2023-04-25T11:57:33;8.10;99.90
13344;DHT22;6741;48.964;9.406;2023-04-25T12:00:13;8.30;99.90
13344;DHT22;6741;48.964;9.406;2023-04-25T12:02:41;8.50;99.90
13344;DHT22;6741;48.964;9.406;2023-04-25T12:05:09;8.80;99.90
13344;DHT22;6741;48.964;9.406;2023-04-25T12:07:36;9.00;99.90
13344;DHT22;6741;48.964;9.406;2023-04-25T12:10:09;9.20;99.90
13344;DHT22;6741;48.964;9.406;2023-04-25T12:12:37;9.10;99.90
13344;DHT22;6741;48.964;9.406;2023-04-25T12:15:14;8.90;99.90
13344;DHT22;6741;48.964;9.406;2023-04-25T12:17:45;8.90;99.90
13344;DHT22;6741;48.964;9.406;2023-04-25T12:20:14;8.90;99.90
13344;DHT22;6741;48.964;9.406;2023-04-25T12:22:42;8.90;99.90
13344;DHT22;6741;48.964;9.406;2023-04-25T12:25:12;8.80;99.90
13344;DHT22;6741;48.964;9.406;2023-04-25T12:27:40;8.70;99.90
13344;DHT22;6741;48.964;9.406;2023-04-25T12:30:08;8.60;99.90
13344;DHT22;6741;48.964;9.406;2023-04-25T12:32:37;8.90;99.90
13344;DHT22;6741;48.964;9.406;2023-04-25T12:35:05;9.50;99.90
13344;DHT22;6741;48.964;9.406;2023-04-25T12:37:32;9.50;99.90
13344;DHT22;6741;48.964;9.406;2023-04-25T12:39:59;9.60;99.90
13344;DHT22;6741;48.964;9.406;2023-04-25T12:42:26;9.50;99.90
13344;DHT22;6741;48.964;9.406;2023-04-25T12:44:53;9.40;99.90
13344;DHT22;6741;48.964;9.406;2023-04-25T12:47:20;9.60;99.90
13344;DHT22;6741;48.964;9.406;2023-04-25T12:49:48;9.40;99.90
13344;DHT22;6741;48.964;9.406;2023-04-25T12:52:15;9.30;99.90
13344;DHT22;6741;48.964;9.406;2023-04-25T12:54:42;9.30;99.90
13344;DHT22;6741;48.964;9.406;2023-04-25T12:57:09;9.30;99.90
13344;DHT22;6741;48.964;9.406;2023-04-25T12:59:36;9.00;99.90
13344;DHT22;6741;48.964;9.406;2023-04-25T13:02:04;8.90;99.90
13344;DHT22;6741;48.964;9.406;2023-04-25T13:04:31;9.10;99.90
13344;DHT22;6741;48.964;9.406;2023-04-25T13:06:59;9.00;99.90
13344;DHT22;6741;48.964;9.406;2023-04-25T13:09:26;9.20;99.90
13344;DHT22;6741;48.964;9.406;2023-04-25T13:11:53;9.20;99.90
13344;DHT22;6741;48.964;9.406;2023-04-25T13:14:21;9.30;99.90
13344;DHT22;6741;48.964;9.406;2023-04-25T13:16:48;9.40;99.90
13344;DHT22;6741;48.964;9.406;2023-04-25T13:19:15;10.20;99.90
13344;DHT22;6741;48.964;9.406;2023-04-25T13:21:42;10.90;99.90
13344;DHT22;6741;48.964;9.406;2023-04-25T13:24:10;10.80;99.90
13344;DHT22;6741;48.964;9.406;2023-04-25T13:26:37;10.30;99.90
13344;DHT22;6741;48.964;9.406;2023-04-25T13:29:04;10.20;99.90
13344;DHT22;6741;48.964;9.406;2023-04-25T13:31:31;10.40;99.90
13344;DHT22;6741;48.964;9.406;2023-04-25T13:33:58;11.10;99.90
13344;DHT22;6741;48.964;9.406;2023-04-25T13:36:25;11.60;99.90
13344;DHT22;6741;48.964;9.406;2023-04-25T13:38:53;11.40;99.90
13344;DHT22;6741;48.964;9.406;2023-04-25T13:41:21;10.80;99.90
13344;DHT22;6741;48.964;9.406;2023-04-25T13:43:48;10.20;99.90
13344;DHT22;6741;48.964;9.406;2023-04-25T13:46:16;9.70;99.90
13344;DHT22;6741;48.964;9.406;2023-04-25T13:48:43;9.40;99.90
13344;DHT22;6741;48.964;9.406;2023-04-25T13:51:15;9.30;99.90
13344;DHT22;6741;48.964;9.406;2023-04-25T13:53:43;8.90;99.90
13344;DHT22;6741;48.964;9.406;2023-04-25T13:56:11;8.90;99.90
13344;DHT22;6741;48.964;9.406;2023-04-25T13:58:39;9.00;99.90
13344;DHT22;6741;48.964;9.406;2023-04-25T14:01:06;9.30;99.90
13344;DHT22;6741;48.964;9.406;2023-04-25T14:03:33;9.60;99.90
13344;DHT22;6741;48.964;9.406;2023-04-25T14:06:00;9.90;99.90
13344;DHT22;6741;48.964;9.406;2023-04-25T14:08:27;10.20;99.90
13344;DHT22;6741;48.964;9.406;2023-04-25T14:10:55;10.30;99.90
13344;DHT22;6741;48.964;9.406;2023-04-25T14:13:22;10.20;99.90
13344;DHT22;6741;48.964;9.406;2023-04-25T14:15:51;10.30;99.90
13344;DHT22;6741;48.964;9.406;2023-04-25T14:18:19;10.20;99.90
13344;DHT22;6741;48.964;9.406;2023-04-25T14:20:46;10.20;99.90
13344;DHT22;6741;48.964;9.406;2023-04-25T14:23:13;11.70;99.90
13344;DHT22;6741;48.964;9.406;2023-04-25T14:25:40;12.80;99.90
13344;DHT22;6741;48.964;9.406;2023-04-25T14:28:09;12.00;99.90
13344;DHT22;6741;48.964;9.406;2023-04-25T14:30:36;11.20;99.90
13344;DHT22;6741;48.964;9.406;2023-04-25T14:33:05;10.50;99.90
13344;DHT22;6741;48.964;9.406;2023-04-25T14:35:32;10.30;99.90
13344;DHT22;6741;48.964;9.406;2023-04-25T14:37:59;10.80;99.90
13344;DHT22;6741;48.964;9.406;2023-04-25T14:40:26;11.60;99.90
13344;DHT22;6741;48.964;9.406;2023-04-25T14:42:54;11.20;99.90
13344;DHT22;6741;48.964;9.406;2023-04-25T14:45:24;10.80;99.90
13344;DHT22;6741;48.964;9.406;2023-04-25T14:47:51;10.50;99.90
13344;DHT22;6741;48.964;9.406;2023-04-25T14:50:20;10.40;99.90
13344;DHT22;6741;48.964;9.406;2023-04-25T14:52:47;10.50;99.90
13344;DHT22;6741;48.964;9.406;2023-04-25T14:55:14;10.20;99.90
13344;DHT22;6741;48.964;9.406;2023-04-25T14:57:42;10.20;99.90
13344;DHT22;6741;48.964;9.406;2023-04-25T15:00:10;9.90;99.90
13344;DHT22;6741;48.964;9.406;2023-04-25T15:02:40;9.90;99.90
13344;DHT22;6741;48.964;9.406;2023-04-25T15:05:08;9.80;99.90
13344;DHT22;6741;48.964;9.406;2023-04-25T15:07:36;9.70;99.90
13344;DHT22;6741;48.964;9.406;2023-04-25T15:10:05;9.90;99.90
13344;DHT22;6741;48.964;9.406;2023-04-25T15:12:36;9.90;99.90
13344;DHT22;6741;48.964;9.406;2023-04-25T15:15:04;9.90;99.90
13344;DHT22;6741;48.964;9.406;2023-04-25T15:17:32;10.10;99.90
13344;DHT22;6741;48.964;9.406;2023-04-25T15:19:59;11.00;99.90
13344;DHT22;6741;48.964;9.406;2023-04-25T15:22:26;11.20;99.90
13344;DHT22;6741;48.964;9.406;2023-04-25T15:24:54;11.00;99.90
13344;DHT22;6741;48.964;9.406;2023-04-25T15:27:21;10.90;99.90
13344;DHT22;6741;48.964;9.406;2023-04-25T15:29:48;10.80;99.90
13344;DHT22;6741;48.964;9.406;2023-04-25T15:32:15;10.60;99.90
13344;DHT22;6741;48.964;9.406;2023-04-25T15:34:42;10.60;99.90
13344;DHT22;6741;48.964;9.406;2023-04-25T15:37:09;10.50;99.90
13344;DHT22;6741;48.964;9.406;2023-04-25T15:39:36;10.30;99.90
13344;DHT22;6741;48.964;9.406;2023-04-25T15:42:05;10.10;99.90
13344;DHT22;6741;48.964;9.406;2023-04-25T15:44:32;10.10;99.90
13344;DHT22;6741;48.964;9.406;2023-04-25T15:46:59;9.90;99.90
13344;DHT22;6741;48.964;9.406;2023-04-25T15:49:26;10.10;99.90
13344;DHT22;6741;48.964;9.406;2023-04-25T15:51:53;10.30;99.90
13344;DHT22;6741;48.964;9.406;2023-04-25T15:54:20;10.50;99.90
13344;DHT22;6741;48.964;9.406;2023-04-25T15:56:47;10.30;99.90
13344;DHT22;6741;48.964;9.406;2023-04-25T15:59:16;10.50;99.90
13344;DHT22;6741;48.964;9.406;2023-04-25T16:01:43;10.90;99.90
13344;DHT22;6741;48.964;9.406;2023-04-25T16:04:11;10.90;99.90